Time;durP1;ratioP1;P1;durP2;ratioP2;P2;SDS_P1;SDS_P2;PMS_P1;PMS_P2;Temp;Humidity;BMP_temperature;BMP_pressure;BME280_temperature;BME280_humidity;BME280_pressure;Samples;Min_cycle;Max_cycle;Signal;HPM_P1;HPM_P2
2022/06/12 00:00:45;;;;;;;11.70;3.70;;;;;;;15.97;84.09;101548.44;4969095;28;20791;-70
2022/06/12 00:03:12;;;;;;;5.22;3.22;;;;;;;15.91;84.45;101541.06;4966896;28;20033;-70
2022/06/12 00:05:39;;;;;;;6.18;3.20;;;;;;;15.77;84.97;101541.56;4983059;28;20206;-71
2022/06/12 00:08:05;;;;;;;4.13;3.35;;;;;;;15.93;84.04;101543.56;4971179;28;20022;-71
2022/06/12 00:10:31;;;;;;;6.32;3.28;;;;;;;16.13;82.49;101549.59;5003477;28;20232;-73
2022/06/12 00:12:57;;;;;;;5.07;3.10;;;;;;;15.85;82.99;101551.50;4968506;28;20071;-71
2022/06/12 00:15:24;;;;;;;4.25;3.03;;;;;;;15.76;83.50;101548.72;4987350;27;21066;-71
2022/06/12 00:17:49;;;;;;;3.38;3.08;;;;;;;15.72;83.24;101558.03;5010270;28;20104;-71
2022/06/12 00:20:16;;;;;;;4.32;2.78;;;;;;;15.79;83.29;101564.47;5006224;27;20994;-70
2022/06/12 00:22:43;;;;;;;3.30;2.95;;;;;;;15.87;82.67;101561.03;4998882;27;20021;-71
2022/06/12 00:25:13;;;;;;;3.47;3.17;;;;;;;15.83;82.79;101562.31;4965111;28;20047;-71
2022/06/12 00:27:39;;;;;;;7.45;3.25;;;;;;;15.69;83.29;101552.16;4976656;28;20078;-71
2022/06/12 00:30:06;;;;;;;3.08;2.78;;;;;;;15.85;82.65;101562.19;4992308;28;20052;-71
2022/06/12 00:32:31;;;;;;;6.05;3.20;;;;;;;15.88;82.84;101561.91;4984220;28;20011;-71
2022/06/12 00:34:57;;;;;;;3.08;2.70;;;;;;;15.73;83.18;101557.03;4991018;28;20013;-70
2022/06/12 00:37:23;;;;;;;5.43;3.10;;;;;;;15.67;83.75;101556.81;4957967;28;20192;-72
2022/06/12 00:39:50;;;;;;;5.22;2.63;;;;;;;15.52;84.29;101551.97;4976929;28;20022;-70
2022/06/12 00:42:22;;;;;;;7.72;2.78;;;;;;;15.52;84.57;101556.47;4993570;27;20305;-71
2022/06/12 00:44:47;;;;;;;3.30;2.97;;;;;;;15.58;84.75;101554.03;4999747;27;20339;-70
2022/06/12 00:47:14;;;;;;;4.72;2.80;;;;;;;15.49;84.95;101548.78;5000814;27;20021;-70
2022/06/12 00:49:45;;;;;;;4.32;3.25;;;;;;;15.47;85.47;101554.25;4989178;28;20014;-70
2022/06/12 00:52:16;;;;;;;6.97;2.70;;;;;;;15.50;85.41;101558.44;5013759;27;20032;-71
2022/06/12 00:54:43;;;;;;;6.65;3.28;;;;;;;15.34;85.92;101562.63;4992239;27;20506;-70
2022/06/12 00:57:09;;;;;;;6.13;2.72;;;;;;;15.43;86.16;101564.38;4988477;27;20026;-70
2022/06/12 00:59:44;;;;;;;4.30;3.03;;;;;;;15.33;86.11;101568.06;5001339;28;20084;-70
2022/06/12 01:02:16;;;;;;;5.13;3.22;;;;;;;15.30;86.17;101563.88;4959832;28;20021;-71
2022/06/12 01:07:52;;;;;;;3.25;2.80;;;;;;;15.15;86.26;101557.38;4917095;28;20050;-69
2022/06/12 01:10:18;;;;;;;8.38;2.97;;;;;;;15.13;86.59;101564.66;4976334;27;20025;-70
2022/06/12 01:12:50;;;;;;;5.43;3.40;;;;;;;15.24;86.31;101561.78;4996599;27;20036;-70
2022/06/12 01:15:36;;;;;;;5.60;3.10;;;;;;;15.20;85.59;101558.59;5016072;27;20037;-70
2022/06/12 01:18:05;;;;;;;8.27;3.45;;;;;;;15.16;85.66;101567.88;4987164;27;20229;-70
2022/06/12 01:20:32;;;;;;;4.18;2.88;;;;;;;15.24;85.28;101562.66;5008181;27;20036;-70
2022/06/12 01:23:25;;;;;;;4.95;3.30;;;;;;;15.11;85.43;101565.63;4995974;27;20089;-71
2022/06/12 01:26:24;;;;;;;6.13;3.30;;;;;;;15.21;85.63;101570.09;5014721;27;20016;-70
2022/06/12 01:29:08;;;;;;;3.90;2.92;;;;;;;15.36;84.30;101571.28;5033504;27;20240;-71
2022/06/12 01:32:02;;;;;;;7.22;3.28;;;;;;;15.26;84.68;101568.66;5000860;27;20699;-71
2022/06/12 01:34:54;;;;;;;5.73;3.17;;;;;;;15.17;84.98;101574.03;5000089;27;20021;-71
2022/06/12 01:37:36;;;;;;;6.15;3.33;;;;;;;15.13;85.22;101583.31;5030104;27;20025;-71
2022/06/12 01:40:20;;;;;;;5.10;3.40;;;;;;;15.23;84.95;101578.78;5030828;27;20924;-70
2022/06/12 01:43:11;;;;;;;3.78;3.00;;;;;;;14.98;85.69;101574.97;5032197;27;20017;-70
2022/06/12 01:45:46;;;;;;;5.35;3.08;;;;;;;14.90;86.27;101578.34;5008763;27;20064;-70
2022/06/12 01:48:23;;;;;;;6.03;3.30;;;;;;;14.97;86.30;101567.94;4998147;27;20123;-70
2022/06/12 01:50:58;;;;;;;5.32;3.00;;;;;;;14.90;85.77;101567.69;4999513;27;20000;-71
2022/06/12 01:53:37;;;;;;;5.88;3.13;;;;;;;14.86;85.97;101560.94;5033210;27;20514;-70
2022/06/12 01:56:19;;;;;;;6.30;3.28;;;;;;;14.93;85.85;101559.38;5012321;27;21024;-70
2022/06/12 01:59:03;;;;;;;6.22;3.35;;;;;;;14.70;86.15;101559.72;4994047;28;20040;-70
2022/06/12 02:01:28;;;;;;;4.28;3.40;;;;;;;14.66;86.88;101560.16;4940055;28;20017;-70
2022/06/12 02:04:12;;;;;;;6.05;3.40;;;;;;;14.81;86.83;101553.41;4986643;28;20014;-71
2022/06/12 02:06:41;;;;;;;4.18;3.33;;;;;;;14.68;86.19;101553.72;4992362;27;20784;-71
2022/06/12 02:09:10;;;;;;;6.97;3.25;;;;;;;14.58;86.13;101550.19;4982074;28;20014;-69
2022/06/12 02:15:35;;;;;;;4.68;3.20;;;;;;;14.65;86.36;101550.50;4960843;28;20094;-70
2022/06/12 02:18:11;;;;;;;4.20;3.10;;;;;;;14.51;86.00;101547.28;4969268;28;20022;-71
2022/06/12 02:20:40;;;;;;;4.25;3.42;;;;;;;14.40;86.19;101550.94;4978948;28;20060;-71
2022/06/12 02:23:18;;;;;;;4.95;3.10;;;;;;;14.38;86.09;101552.91;4987190;28;20297;-71
2022/06/12 02:25:44;;;;;;;4.97;3.15;;;;;;;14.32;86.61;101547.31;4995932;28;20871;-71
2022/06/12 02:28:16;;;;;;;4.85;3.33;;;;;;;14.23;86.79;101552.47;4962915;28;20074;-68
2022/06/12 02:30:43;;;;;;;5.65;3.42;;;;;;;14.41;85.80;101547.28;5003941;28;20073;-70
2022/06/12 02:33:21;;;;;;;3.75;3.10;;;;;;;14.30;85.95;101550.09;4969786;28;20010;-69
2022/06/12 02:36:01;;;;;;;6.53;2.90;;;;;;;14.23;86.08;101546.34;4984018;28;20013;-70
2022/06/12 02:38:32;;;;;;;3.40;3.10;;;;;;;14.22;85.81;101544.66;4973071;28;20135;-70
2022/06/12 02:41:12;;;;;;;5.55;3.30;;;;;;;14.21;85.29;101545.63;4940252;28;20902;-71
2022/06/12 02:43:40;;;;;;;7.55;3.40;;;;;;;14.00;85.98;101543.94;4954101;28;20018;-71
2022/06/12 02:46:08;;;;;;;5.50;3.40;;;;;;;14.03;86.51;101548.13;4949146;28;20029;-69
2022/06/12 02:48:34;;;;;;;7.18;3.20;;;;;;;14.01;85.90;101550.09;4999768;28;20369;-72
2022/06/12 02:51:21;;;;;;;4.95;3.42;;;;;;;14.11;85.62;101545.63;4986391;28;20049;-71
2022/06/12 02:54:09;;;;;;;9.13;3.58;;;;;;;14.07;85.09;101542.41;5009740;28;20032;-71
2022/06/12 02:56:59;;;;;;;8.18;3.70;;;;;;;13.92;85.47;101546.47;4989754;28;20014;-70
2022/06/12 02:59:47;;;;;;;7.35;4.10;;;;;;;13.84;86.52;101556.97;5013620;27;20929;-71
2022/06/12 03:02:27;;;;;;;5.05;3.70;;;;;;;13.89;86.07;101552.06;5010698;28;20957;-70
2022/06/12 03:05:21;;;;;;;10.10;3.80;;;;;;;13.70;86.42;101536.91;5014252;28;20028;-70
2022/06/12 03:07:49;;;;;;;4.93;3.90;;;;;;;13.68;86.45;101544.19;5012856;28;20112;-70
2022/06/12 03:10:16;;;;;;;6.65;3.75;;;;;;;13.61;86.56;101543.91;5014924;27;20040;-69
2022/06/12 03:12:41;;;;;;;6.43;3.42;;;;;;;13.57;86.86;101538.00;4993040;28;20504;-70
2022/06/12 03:15:24;;;;;;;4.03;3.17;;;;;;;13.59;86.96;101545.00;4972318;27;20009;-70
2022/06/12 03:17:49;;;;;;;7.50;3.95;;;;;;;13.55;86.98;101545.28;5014614;28;20021;-70
2022/06/12 03:20:15;;;;;;;3.83;3.50;;;;;;;13.53;86.98;101546.41;4995115;27;20067;-70
2022/06/12 03:22:48;;;;;;;6.57;3.50;;;;;;;13.53;86.83;101547.22;5035419;27;20546;-71
2022/06/12 03:25:38;;;;;;;6.47;3.55;;;;;;;13.52;86.68;101550.88;5000366;27;20017;-70
2022/06/12 03:28:28;;;;;;;5.85;3.47;;;;;;;13.42;86.70;101555.31;4991415;27;20031;-70
2022/06/12 03:31:06;;;;;;;5.80;3.50;;;;;;;13.36;86.84;101551.38;5020559;27;20024;-70
2022/06/12 03:33:43;;;;;;;4.22;3.33;;;;;;;13.35;86.99;101552.38;4996866;28;20075;-69
2022/06/12 03:36:16;;;;;;;4.20;3.47;;;;;;;13.20;87.36;101559.84;4994975;27;20093;-69
2022/06/12 03:38:47;;;;;;;;;;;;;;;13.15;87.72;101559.38;4997486;27;20329;-70
2022/06/12 03:41:43;;;;;;;3.88;3.22;;;;;;;13.15;87.49;101562.03;5017448;27;19910;-70
2022/06/12 03:44:10;;;;;;;6.07;3.30;;;;;;;13.12;87.68;101559.66;5034929;27;20084;-71
2022/06/12 03:46:57;;;;;;;3.85;3.30;;;;;;;13.16;87.61;101565.56;5033301;27;20528;-71
2022/06/12 03:49:30;;;;;;;4.60;3.20;;;;;;;13.26;86.85;101558.47;4982831;27;20005;-70
2022/06/12 03:52:14;;;;;;;4.93;3.30;;;;;;;13.34;85.75;101565.75;4991362;28;20014;-70
2022/06/12 03:54:58;;;;;;;10.63;3.60;;;;;;;13.18;86.79;101566.25;4993779;27;20021;-71
2022/06/12 03:57:54;;;;;;;6.65;3.22;;;;;;;13.17;86.78;101567.22;5017831;27;20007;-71
2022/06/12 04:00:34;;;;;;;8.88;3.55;;;;;;;13.33;85.97;101570.22;5001406;27;20222;-71
2022/06/12 04:03:03;;;;;;;5.80;3.50;;;;;;;13.23;85.82;101572.84;5022930;27;20472;-71
2022/06/12 04:05:37;;;;;;;10.55;3.70;;;;;;;13.12;86.51;101574.78;5025110;27;20073;-70
2022/06/12 04:08:03;;;;;;;;;;;;;;;13.23;86.50;101580.00;5023301;27;20013;-72
2022/06/12 04:10:31;;;;;;;3.70;3.38;;;;;;;13.35;85.58;101572.78;5035758;27;19970;-71
2022/06/12 04:12:56;;;;;;;4.38;3.30;;;;;;;13.38;84.69;101570.72;4999480;27;20176;-72
2022/06/12 04:15:34;;;;;;;5.93;3.45;;;;;;;13.30;85.33;101570.50;4999630;27;20044;-70
2022/06/12 04:17:59;;;;;;;6.30;3.50;;;;;;;13.41;84.68;101574.94;4998491;27;20994;-70
2022/06/12 04:20:30;;;;;;;6.07;3.50;;;;;;;13.39;85.50;101576.84;4980909;27;20111;-70
2022/06/12 04:23:01;;;;;;;4.45;3.70;;;;;;;13.49;85.03;101579.56;5014052;27;20318;-70
2022/06/12 04:25:44;;;;;;;6.25;3.50;;;;;;;13.49;84.95;101576.91;4984981;27;20036;-70
2022/06/12 04:28:28;;;;;;;3.83;3.30;;;;;;;13.43;85.38;101590.75;4996582;27;21125;-71
2022/06/12 04:30:54;;;;;;;;;;;;;;;13.62;84.83;101581.97;5033838;27;20329;-70
2022/06/12 04:33:33;;;;;;;7.65;3.90;;;;;;;13.50;85.04;101586.56;5031343;27;20721;-70
2022/06/12 04:36:00;;;;;;;7.53;3.75;;;;;;;13.39;86.29;101580.34;4999302;27;20033;-70
2022/06/12 04:38:26;;;;;;;11.27;3.75;;;;;;;13.42;86.27;101581.91;5002913;27;20017;-69
2022/06/12 04:40:51;;;;;;;8.18;3.70;;;;;;;13.44;85.96;101587.09;5001131;27;20892;-70
2022/06/12 04:43:17;;;;;;;5.25;3.40;;;;;;;13.49;85.73;101584.88;5017667;27;20130;-70
2022/06/12 04:45:43;;;;;;;6.90;3.83;;;;;;;13.51;85.91;101581.09;5001120;27;20093;-71
2022/06/12 04:48:14;;;;;;;4.28;3.53;;;;;;;13.55;85.76;101581.66;4982941;27;20047;-70
2022/06/12 04:50:40;;;;;;;6.28;3.50;;;;;;;13.61;86.18;101591.78;5016757;27;20185;-70
2022/06/12 04:53:05;;;;;;;7.80;3.42;;;;;;;13.63;85.85;101595.13;4990576;27;20018;-71
2022/06/12 04:55:32;;;;;;;6.22;3.20;;;;;;;13.65;86.17;101595.84;4998773;28;20053;-69
2022/06/12 04:57:58;;;;;;;5.28;3.47;;;;;;;13.70;86.38;101590.09;5017020;28;20556;-70
2022/06/12 05:00:24;;;;;;;4.72;3.38;;;;;;;13.75;86.47;101590.56;4979994;28;20021;-68
2022/06/12 05:02:49;;;;;;;4.03;2.92;;;;;;;13.92;86.35;101594.34;5024207;27;20013;-71
2022/06/12 05:05:14;;;;;;;3.10;2.90;;;;;;;13.97;86.04;101591.28;5017788;27;20126;-71
2022/06/12 05:07:40;;;;;;;4.10;3.20;;;;;;;14.03;85.84;101590.72;5002994;27;20008;-70
2022/06/12 05:10:06;;;;;;;7.72;3.30;;;;;;;14.14;85.78;101587.91;5019662;27;20376;-70
2022/06/12 05:12:32;;;;;;;6.10;3.10;;;;;;;14.14;85.73;101587.09;5020452;27;20085;-70
2022/06/12 05:14:57;;;;;;;3.33;3.03;;;;;;;14.20;85.98;101581.19;5020858;27;20033;-70
2022/06/12 05:17:23;;;;;;;4.43;3.20;;;;;;;14.30;86.31;101582.06;5003242;27;20008;-71
2022/06/12 05:19:49;;;;;;;4.03;3.28;;;;;;;14.38;86.34;101576.00;4984598;28;20250;-71
2022/06/12 05:22:15;;;;;;;5.63;3.33;;;;;;;14.54;86.15;101583.44;4973523;27;20032;-71
2022/06/12 05:24:40;;;;;;;3.45;3.15;;;;;;;14.72;85.96;101583.56;4988124;27;20009;-71
2022/06/12 05:27:08;;;;;;;7.20;3.78;;;;;;;14.81;85.91;101585.38;5001401;28;20062;-70
2022/06/12 05:29:35;;;;;;;5.32;3.55;;;;;;;14.97;85.34;101590.09;5018829;27;20009;-71
2022/06/12 05:32:01;;;;;;;7.78;3.90;;;;;;;15.16;84.78;101583.00;5003783;27;20338;-71
2022/06/12 05:34:27;;;;;;;5.78;4.30;;;;;;;15.29;83.83;101578.19;5004518;27;20013;-71
2022/06/12 05:36:52;;;;;;;7.55;4.03;;;;;;;15.33;83.72;101582.25;5018121;27;20765;-71
2022/06/12 05:39:18;;;;;;;9.38;4.70;;;;;;;15.44;83.26;101578.53;5019319;27;20041;-70
2022/06/12 05:41:44;;;;;;;10.27;5.25;;;;;;;15.52;82.21;101577.81;4982064;28;20073;-70
2022/06/12 05:44:10;;;;;;;5.65;4.97;;;;;;;15.70;81.72;101578.69;5021305;27;20025;-70
2022/06/12 05:46:35;;;;;;;7.72;4.82;;;;;;;15.75;81.10;101579.09;5003268;27;20106;-71
2022/06/12 05:49:01;;;;;;;11.27;5.10;;;;;;;15.86;80.17;101583.38;5039318;27;20690;-71
2022/06/12 05:51:26;;;;;;;9.60;4.82;;;;;;;15.94;80.98;101578.13;4986127;27;20258;-70
2022/06/12 05:53:52;;;;;;;9.35;4.85;;;;;;;16.04;81.29;101579.91;5001899;27;20096;-70
2022/06/12 05:56:19;;;;;;;9.27;4.80;;;;;;;16.13;81.10;101585.16;5020334;27;20009;-72
2022/06/12 05:58:45;;;;;;;11.73;5.10;;;;;;;16.27;79.95;101588.28;5000789;28;20029;-71
2022/06/12 06:01:12;;;;;;;8.98;5.05;;;;;;;16.23;79.50;101592.25;5008157;28;20025;-71
2022/06/12 06:03:38;;;;;;;10.20;5.10;;;;;;;16.24;78.52;101591.25;4970183;28;20128;-71
2022/06/12 06:06:05;;;;;;;12.13;4.97;;;;;;;16.40;78.08;101595.88;4991856;28;20479;-71
2022/06/12 06:08:31;;;;;;;9.13;4.78;;;;;;;16.45;75.30;101586.41;4961672;28;20007;-71
2022/06/12 06:10:56;;;;;;;10.10;4.72;;;;;;;16.48;73.04;101596.81;4991915;28;20018;-71
2022/06/12 06:13:21;;;;;;;12.82;4.47;;;;;;;16.55;70.75;101596.19;4996398;28;20705;-71
2022/06/12 06:15:47;;;;;;;10.93;4.13;;;;;;;16.65;70.18;101602.25;4998728;27;20089;-71
2022/06/12 06:18:12;;;;;;;9.27;3.85;;;;;;;16.71;68.82;101599.00;4957823;28;20514;-70
2022/06/12 06:20:38;;;;;;;8.63;4.25;;;;;;;16.83;67.29;101607.56;4983646;28;20821;-70
2022/06/12 06:23:08;;;;;;;7.18;3.78;;;;;;;16.87;67.32;101595.56;4980060;28;20141;-71
2022/06/12 06:25:37;;;;;;;8.75;3.70;;;;;;;16.85;67.25;101596.72;4976870;28;20515;-71
2022/06/12 06:28:02;;;;;;;8.40;3.80;;;;;;;16.90;67.77;101595.28;4996274;28;20017;-70
2022/06/12 06:30:28;;;;;;;10.70;3.78;;;;;;;16.97;66.58;101592.84;4978814;28;20573;-71
2022/06/12 06:32:54;;;;;;;7.45;3.63;;;;;;;17.11;66.74;101602.09;4977721;28;20033;-70
2022/06/12 06:35:19;;;;;;;11.43;4.13;;;;;;;17.13;66.11;101598.28;5015863;27;20048;-72
2022/06/12 06:37:45;;;;;;;10.02;3.67;;;;;;;17.19;66.38;101598.63;4999674;28;20018;-70
2022/06/12 06:40:11;;;;;;;9.73;3.72;;;;;;;17.28;66.08;101609.19;4975243;27;20142;-72
2022/06/12 06:42:37;;;;;;;10.13;4.10;;;;;;;17.29;66.36;101597.50;5011217;28;20740;-71
2022/06/12 06:47:47;;;;;;;10.52;3.88;;;;;;;17.43;63.56;101606.78;4999000;28;20153;-71
2022/06/12 06:50:13;;;;;;;8.57;3.78;;;;;;;17.41;63.63;101603.41;5002422;28;20351;-72
2022/06/12 06:52:38;;;;;;;6.45;3.50;;;;;;;17.43;64.78;101609.44;4987748;28;20100;-71
2022/06/12 17:43:27;;;;;;;2.05;1.65;;;;;;;23.64;36.53;101263.41;5082713;27;20428;-68
2022/06/12 17:45:54;;;;;;;2.88;1.70;;;;;;;23.55;36.50;101263.84;4998032;28;20014;-68
2022/06/12 17:48:19;;;;;;;2.85;1.60;;;;;;;23.57;37.38;101268.00;5003742;28;20034;-67
2022/06/12 17:50:45;;;;;;;3.80;1.65;;;;;;;23.52;36.98;101265.13;5003554;28;20010;-68
2022/06/12 17:53:10;;;;;;;2.38;1.50;;;;;;;23.45;37.96;101264.25;4979344;28;20091;-68
2022/06/12 17:55:39;;;;;;;3.55;1.70;;;;;;;23.43;37.93;101266.34;4998508;27;20029;-68
2022/06/12 17:58:05;;;;;;;3.58;1.90;;;;;;;23.18;39.00;101258.06;4985832;28;20010;-68
2022/06/12 18:00:32;;;;;;;3.55;1.75;;;;;;;23.11;37.66;101263.44;4995635;28;20041;-68
2022/06/12 18:02:58;;;;;;;3.15;1.63;;;;;;;22.97;39.45;101262.59;4961593;28;20119;-67
2022/06/12 18:05:23;;;;;;;4.45;1.90;;;;;;;22.94;38.90;101260.31;5007004;28;20054;-68
2022/06/12 18:07:49;;;;;;;3.80;1.70;;;;;;;22.81;39.79;101263.81;4999918;28;20513;-69
2022/06/12 18:10:14;;;;;;;2.00;1.80;;;;;;;22.74;39.67;101268.38;4978566;27;20359;-68
2022/06/12 18:12:40;;;;;;;3.63;1.60;;;;;;;22.73;38.92;101266.72;5000746;27;20093;-69
2022/06/12 18:20:33;;;;;;;5.78;1.90;;;;;;;22.51;40.10;101264.19;5031082;27;20228;-68
2022/06/12 18:22:59;;;;;;;3.58;1.80;;;;;;;22.37;39.47;101259.78;4994522;27;20033;-66
2022/06/12 18:25:24;;;;;;;5.05;2.13;;;;;;;22.21;40.60;101256.38;5007881;27;20064;-67
2022/06/12 18:27:49;;;;;;;3.67;1.90;;;;;;;22.20;41.62;101252.00;5001265;28;20421;-67
2022/06/12 18:30:15;;;;;;;2.67;1.83;;;;;;;22.16;41.02;101258.03;5023553;27;20073;-68
2022/06/12 18:32:40;;;;;;;5.60;1.92;;;;;;;22.15;40.00;101259.88;5016003;27;20387;-67
2022/06/12 18:35:08;;;;;;;2.30;1.88;;;;;;;22.06;40.29;101261.09;5009411;27;20024;-68
2022/06/12 18:37:35;;;;;;;3.10;1.90;;;;;;;21.99;41.27;101255.66;4991892;27;20984;-69
2022/06/12 18:40:02;;;;;;;3.13;1.88;;;;;;;21.94;41.25;101250.03;5010923;28;20124;-69
2022/06/12 18:42:27;;;;;;;4.88;1.80;;;;;;;21.83;40.73;101250.59;5001465;27;20021;-67
2022/06/12 18:44:52;;;;;;;2.40;1.70;;;;;;;21.83;42.01;101256.84;5012928;27;20052;-69
2022/06/12 18:47:18;;;;;;;3.50;2.05;;;;;;;21.82;42.35;101255.16;5005669;27;20195;-68
2022/06/12 18:49:43;;;;;;;2.78;1.75;;;;;;;21.71;43.51;101256.53;5014899;27;20021;-68
2022/06/12 18:52:09;;;;;;;5.80;2.20;;;;;;;21.68;44.55;101253.44;5015728;27;20505;-69
2022/06/12 18:54:34;;;;;;;4.30;2.00;;;;;;;21.59;44.97;101260.84;5020735;27;20012;-67
2022/06/12 18:57:00;;;;;;;3.13;1.83;;;;;;;21.46;44.91;101250.75;4995262;28;20029;-67
2022/06/12 18:59:27;;;;;;;7.13;2.40;;;;;;;21.33;45.60;101254.19;5001443;27;20013;-68
2022/06/12 19:01:53;;;;;;;3.03;1.98;;;;;;;21.37;45.81;101260.03;4993744;28;20059;-67
2022/06/12 19:04:18;;;;;;;2.50;1.95;;;;;;;21.36;46.31;101266.44;4998717;27;21013;-69
2022/06/12 19:06:44;;;;;;;5.00;2.15;;;;;;;21.31;46.34;101263.47;4972140;27;20021;-70
2022/06/12 19:09:09;;;;;;;5.50;2.08;;;;;;;21.31;46.31;101264.31;5017085;27;20021;-68
2022/06/12 19:11:37;;;;;;;3.08;1.80;;;;;;;21.19;46.66;101264.00;4981627;27;21019;-67
2022/06/12 19:14:05;;;;;;;3.85;2.00;;;;;;;21.20;46.63;101273.75;5000742;27;20721;-67
2022/06/12 19:16:30;;;;;;;5.13;2.17;;;;;;;21.19;46.65;101272.09;4969025;28;20008;-66
2022/06/12 19:18:56;;;;;;;5.15;1.92;;;;;;;21.09;46.64;101272.44;4999809;28;20141;-67
2022/06/12 19:21:21;;;;;;;3.40;2.00;;;;;;;20.95;46.49;101276.00;4997970;28;20018;-67
2022/06/12 19:23:50;;;;;;;5.20;2.15;;;;;;;20.98;46.98;101277.50;4995879;27;20021;-68
2022/06/12 19:26:15;;;;;;;4.75;2.10;;;;;;;20.93;46.81;101281.59;4990107;28;20071;-67
2022/06/12 19:28:41;;;;;;;5.32;2.17;;;;;;;20.97;47.12;101283.88;4983795;28;20358;-67
2022/06/12 19:31:07;;;;;;;4.10;2.20;;;;;;;20.88;47.19;101286.72;4974613;27;20015;-64
2022/06/12 19:33:33;;;;;;;1.90;1.70;;;;;;;20.81;46.66;101285.81;4999115;28;20014;-65
2022/06/12 19:35:59;;;;;;;2.38;1.70;;;;;;;20.71;46.88;101294.19;5001981;28;20013;-64
2022/06/12 19:38:25;;;;;;;5.03;1.73;;;;;;;20.70;46.20;101292.53;4984621;27;20098;-67
2022/06/12 19:40:52;;;;;;;2.78;1.73;;;;;;;20.62;45.97;101303.38;5008136;27;20005;-69
2022/06/12 19:43:17;;;;;;;1.58;1.48;;;;;;;20.62;46.66;101297.19;4953102;28;20045;-68
2022/06/12 19:45:43;;;;;;;3.50;1.83;;;;;;;20.62;46.59;101302.56;4963274;28;20026;-68
2022/06/12 19:48:08;;;;;;;1.67;1.30;;;;;;;20.42;46.04;101297.78;4973303;28;20437;-68
2022/06/12 19:50:34;;;;;;;4.78;1.48;;;;;;;20.40;46.25;101316.78;4972527;28;20468;-68
2022/06/12 19:53:01;;;;;;;5.05;1.90;;;;;;;20.38;46.24;101313.44;4972524;28;20435;-67
2022/06/12 19:55:26;;;;;;;3.90;1.30;;;;;;;20.35;46.40;101313.00;4968906;28;20183;-69
2022/06/12 19:57:52;;;;;;;2.53;1.42;;;;;;;20.38;46.89;101320.69;4955495;28;20030;-68
2022/06/12 20:00:18;;;;;;;3.70;1.40;;;;;;;20.41;45.72;101318.44;4958358;28;20492;-68
2022/06/12 20:02:43;;;;;;;2.17;1.40;;;;;;;20.38;46.29;101328.75;4976538;28;20102;-68
2022/06/12 20:07:54;;;;;;;2.17;1.40;;;;;;;20.30;46.51;101332.34;4958994;28;20787;-68
2022/06/12 20:10:19;;;;;;;3.47;1.40;;;;;;;20.29;46.38;101329.84;4980574;28;20022;-67
2022/06/12 20:12:45;;;;;;;3.17;1.35;;;;;;;20.05;45.98;101335.34;4966592;28;20006;-69
2022/06/12 20:15:13;;;;;;;3.65;1.33;;;;;;;19.78;46.86;101331.38;4971778;28;20092;-68
2022/06/12 20:17:38;;;;;;;1.83;1.33;;;;;;;19.64;46.87;101332.19;4969915;28;20010;-68
2022/06/12 20:20:06;;;;;;;2.78;1.92;;;;;;;19.58;47.32;101341.00;4947091;28;20281;-68
2022/06/12 20:22:31;;;;;;;1.85;1.75;;;;;;;19.46;47.96;101341.44;4956294;28;20034;-67
2022/06/12 20:24:57;;;;;;;3.83;1.60;;;;;;;19.31;47.93;101335.19;4955005;28;20006;-67
2022/06/12 20:27:22;;;;;;;2.20;1.40;;;;;;;19.30;47.71;101336.19;4972924;28;20026;-68
2022/06/12 20:29:48;;;;;;;1.92;1.33;;;;;;;19.19;47.85;101334.75;4969578;28;20018;-68
2022/06/12 20:32:13;;;;;;;4.75;1.40;;;;;;;19.03;48.53;101333.03;4975250;28;20073;-68
2022/06/12 20:34:40;;;;;;;2.35;1.60;;;;;;;18.97;48.58;101331.91;4953705;28;20029;-68
2022/06/12 20:37:06;;;;;;;1.67;1.30;;;;;;;18.91;48.98;101342.50;4933014;28;20963;-68
2022/06/12 20:39:31;;;;;;;2.78;1.52;;;;;;;18.83;49.27;101333.44;4994190;28;20014;-68
2022/06/12 20:41:57;;;;;;;2.15;1.45;;;;;;;18.84;48.88;101332.44;4966842;28;20117;-68
2022/06/12 20:44:23;;;;;;;5.38;1.60;;;;;;;18.73;49.65;101335.53;4995622;28;20466;-67
2022/06/12 20:46:48;;;;;;;5.38;1.48;;;;;;;18.78;49.69;101333.16;4967662;28;20269;-67
2022/06/12 20:49:14;;;;;;;4.10;1.75;;;;;;;18.71;50.28;101343.75;5007840;27;20082;-68
2022/06/12 20:51:40;;;;;;;2.88;1.75;;;;;;;18.68;49.89;101335.22;4962393;28;20160;-68
2022/06/12 20:54:05;;;;;;;5.72;1.50;;;;;;;18.60;49.94;101335.25;4972423;28;20135;-68
2022/06/12 20:56:31;;;;;;;4.57;1.38;;;;;;;18.60;50.27;101337.94;4974122;28;21027;-68
2022/06/12 20:58:57;;;;;;;2.20;1.50;;;;;;;18.61;50.63;101326.22;4989898;28;20043;-68
2022/06/12 21:01:24;;;;;;;3.97;1.33;;;;;;;18.53;50.83;101327.94;4966932;28;20036;-68
2022/06/12 21:03:49;;;;;;;2.38;1.30;;;;;;;18.42;51.44;101333.66;4978386;28;20242;-68
2022/06/12 21:06:15;;;;;;;4.35;1.60;;;;;;;18.46;51.10;101339.53;4999009;28;20022;-68
2022/06/12 21:08:40;;;;;;;3.35;1.60;;;;;;;18.37;51.44;101336.03;4995331;28;20415;-69
2022/06/12 21:11:06;;;;;;;4.20;1.70;;;;;;;18.22;52.77;101335.94;4990986;28;20029;-67
2022/06/12 21:13:31;;;;;;;3.08;1.80;;;;;;;18.20;52.56;101335.25;4994019;28;20014;-67
2022/06/12 21:15:57;;;;;;;2.63;1.70;;;;;;;18.24;52.89;101338.44;4993433;28;20249;-68
2022/06/12 21:18:22;;;;;;;5.55;3.78;;;;;;;18.13;53.46;101342.31;5013777;28;20014;-68
2022/06/12 21:20:48;;;;;;;2.80;1.95;;;;;;;18.08;53.34;101353.56;4994182;28;20697;-68
2022/06/12 21:23:13;;;;;;;3.13;1.83;;;;;;;18.19;54.29;101341.63;4970308;28;20044;-68
2022/06/12 21:25:44;;;;;;;2.15;1.60;;;;;;;18.05;54.46;101359.25;4987882;28;20034;-68
2022/06/12 21:28:11;;;;;;;2.92;1.55;;;;;;;18.06;54.38;101352.88;4987477;28;20068;-67
2022/06/12 21:30:36;;;;;;;2.47;1.50;;;;;;;17.89;54.59;101353.88;4972551;28;20052;-69
2022/06/12 21:33:02;;;;;;;2.85;1.63;;;;;;;17.73;55.10;101349.41;4982911;28;20026;-68
2022/06/12 21:35:27;;;;;;;3.60;1.50;;;;;;;17.63;55.08;101349.56;4995354;27;20026;-67
2022/06/12 21:37:54;;;;;;;3.40;1.80;;;;;;;17.54;55.97;101353.25;4975494;28;20386;-68
2022/06/12 21:40:19;;;;;;;4.93;1.40;;;;;;;17.61;56.31;101352.44;4985397;28;20018;-67
2022/06/12 21:42:45;;;;;;;2.88;1.40;;;;;;;17.58;56.75;101349.22;5005016;28;20402;-67
2022/06/12 21:45:11;;;;;;;1.45;1.20;;;;;;;17.54;57.14;101356.75;4989728;28;20754;-68
2022/06/12 21:47:36;;;;;;;4.82;1.70;;;;;;;17.49;56.82;101346.56;4989663;28;20018;-67
2022/06/12 21:50:02;;;;;;;3.40;1.40;;;;;;;17.42;57.77;101342.88;4995380;28;20616;-68
2022/06/12 21:55:12;;;;;;;;;;;;;;;17.27;57.72;101355.25;5010113;28;20930;-69
2022/06/12 21:57:37;;;;;;;2.20;1.30;;;;;;;17.27;57.81;101350.72;5007842;28;19949;-68
2022/06/12 22:00:04;;;;;;;6.38;1.63;;;;;;;17.17;58.32;101342.03;4991079;28;20914;-68
2022/06/12 22:02:29;;;;;;;3.63;1.60;;;;;;;17.12;58.81;101345.22;4972604;28;20029;-67
2022/06/12 22:04:55;;;;;;;4.57;1.45;;;;;;;16.97;59.88;101342.34;4960373;28;20272;-67
2022/06/12 22:07:20;;;;;;;3.17;1.50;;;;;;;16.96;59.92;101345.16;4972468;28;20238;-67
2022/06/12 22:09:46;;;;;;;3.75;1.40;;;;;;;16.95;60.12;101352.38;4990509;28;20078;-67
2022/06/12 22:12:12;;;;;;;2.45;1.50;;;;;;;16.87;61.11;101348.81;4979191;28;20611;-68
2022/06/12 22:14:37;;;;;;;6.10;1.63;;;;;;;16.82;61.27;101349.28;4992321;28;20017;-67
2022/06/12 22:17:04;;;;;;;5.30;1.77;;;;;;;16.69;61.01;101347.06;5009010;28;20301;-69
2022/06/12 22:19:29;;;;;;;5.78;1.75;;;;;;;16.73;61.37;101345.75;4993894;28;20177;-67
2022/06/12 22:21:55;;;;;;;2.65;1.55;;;;;;;16.67;61.42;101346.41;4988943;28;20086;-68
2022/06/12 22:24:21;;;;;;;6.63;1.73;;;;;;;16.83;61.39;101351.78;4975596;28;20140;-68
2022/06/12 22:26:47;;;;;;;4.28;1.42;;;;;;;16.71;61.42;101349.59;5005087;28;20021;-68
2022/06/12 22:29:12;;;;;;;2.83;1.45;;;;;;;16.57;61.75;101354.56;5003355;27;20474;-68
2022/06/12 22:31:38;;;;;;;2.17;1.63;;;;;;;16.53;62.37;101347.88;4976656;28;20557;-67
2022/06/12 22:34:03;;;;;;;5.85;1.50;;;;;;;16.41;62.59;101355.34;5017073;27;20030;-68
2022/06/12 22:36:29;;;;;;;2.75;1.58;;;;;;;16.41;62.85;101354.50;4996991;28;20121;-68
2022/06/12 22:38:54;;;;;;;2.53;1.83;;;;;;;16.36;62.56;101354.97;4987839;28;20033;-68
2022/06/12 22:41:19;;;;;;;3.53;1.80;;;;;;;16.37;62.37;101356.66;4984295;28;20894;-68
2022/06/12 22:43:45;;;;;;;4.03;1.60;;;;;;;16.24;62.84;101349.06;4992390;28;20157;-67